FAKG weather

Komati Power Station Airport
Komati Power Station, Mpumalanga, South Africa

Public forecast

Using degrees Celsius for public forecast. Weather courtesy of forecast.io.

Closest aviation weather report (METAR) to Komati Power Station Airport

Closest report is Ermelo Airport, 37.1 nm (68.8 km) SE. Retrieved 2020/02/22 06:43 UTC (1 hour ago):

FAEO 220643Z 36008KT 9999 FEW015 21/17 Q1022

Closest aviation forecast (TAF) to Komati Power Station Airport

Forecast is more than 12 hours old.

Closest forecast is Ermelo Airport, 37.1 nm (68.8 km) SE. Retrieved 2017/06/05 04:55 UTC (3 years ago):

TAF FAEO 050300Z 0504/0515 09006KT CAVOK TX18/0513ZTN05/0504Z